createdAt,value
2023-03-06T00:01:44.735Z,2.50
2023-03-06T00:06:52.199Z,2.40
2023-03-06T00:11:59.096Z,2.50
2023-03-06T00:17:05.910Z,2.50
2023-03-06T00:22:16.377Z,2.50
2023-03-06T00:27:25.347Z,2.50
2023-03-06T00:32:32.402Z,2.60
2023-03-06T00:37:39.897Z,2.40
2023-03-06T00:42:48.597Z,2.50
2023-03-06T00:47:55.556Z,2.50
2023-03-06T00:53:02.633Z,2.40
2023-03-06T00:58:09.766Z,2.50
2023-03-06T01:03:16.773Z,2.30
2023-03-06T01:08:23.662Z,2.40
2023-03-06T01:13:30.475Z,2.30
2023-03-06T01:18:37.817Z,2.40
2023-03-06T01:23:45.126Z,2.50
2023-03-06T01:28:52.063Z,2.40
2023-03-06T01:33:59.119Z,2.30
2023-03-06T01:39:06.116Z,2.20
2023-03-06T01:44:16.152Z,2.20
2023-03-06T01:49:27.185Z,2.40
2023-03-06T01:54:46.661Z,2.30
2023-03-06T02:00:10.471Z,2.30
2023-03-06T02:05:17.438Z,2.20
2023-03-06T02:10:25.201Z,2.10
2023-03-06T02:15:32.753Z,2.20
2023-03-06T02:21:08.225Z,2.20
2023-03-06T02:26:16.673Z,2.20
2023-03-06T02:31:30.636Z,2.10
2023-03-06T02:36:42.315Z,2.10
2023-03-06T02:41:49.053Z,2.20
2023-03-06T02:46:55.743Z,2.10
2023-03-06T02:52:02.483Z,2.10
2023-03-06T02:57:09.441Z,2.20
2023-03-06T03:02:16.170Z,2.20
2023-03-06T03:07:22.880Z,2.10
2023-03-06T03:12:29.600Z,2.10
2023-03-06T03:17:42.027Z,2.00
2023-03-06T03:22:54.386Z,2.10
2023-03-06T03:28:01.125Z,2.10
2023-03-06T03:33:07.821Z,2.00
2023-03-06T03:38:15.293Z,2.10
2023-03-06T03:43:22.255Z,2.10
2023-03-06T03:48:29.017Z,2.10
2023-03-06T03:53:35.734Z,2.00
2023-03-06T03:58:42.515Z,2.10
2023-03-06T04:03:49.178Z,2.10
2023-03-06T04:08:56.030Z,2.10
2023-03-06T04:14:03.595Z,2.10
2023-03-06T04:19:11.967Z,2.10
2023-03-06T04:24:18.660Z,2.00
2023-03-06T04:29:25.342Z,1.90
2023-03-06T04:34:32.176Z,2.00
2023-03-06T04:39:38.915Z,2.00
2023-03-06T04:44:45.620Z,2.00
2023-03-06T04:49:52.317Z,2.00
2023-03-06T04:54:59.070Z,2.00
2023-03-06T05:00:09.846Z,1.90
2023-03-06T05:05:17.120Z,1.80
2023-03-06T05:10:24.133Z,1.80
2023-03-06T05:15:30.821Z,1.90
2023-03-06T05:20:37.558Z,1.80
2023-03-06T05:25:44.425Z,1.90
2023-03-06T05:30:51.269Z,1.80
2023-03-06T05:35:57.898Z,1.60
2023-03-06T05:41:04.744Z,1.90
2023-03-06T05:46:12.610Z,1.80
2023-03-06T05:51:19.373Z,1.90
2023-03-06T05:56:26.062Z,1.80
2023-03-06T06:01:32.727Z,1.80
2023-03-06T06:06:39.547Z,1.90
2023-03-06T06:11:46.242Z,1.90
2023-03-06T06:16:53.688Z,1.90
2023-03-06T06:22:01.943Z,1.80
2023-03-06T06:27:09.044Z,1.80
2023-03-06T06:32:15.809Z,1.70
2023-03-06T06:37:22.643Z,1.80
2023-03-06T06:42:36.919Z,1.80
2023-03-06T06:47:42.001Z,1.70
2023-03-06T06:52:48.838Z,1.70
2023-03-06T06:57:55.722Z,1.80
2023-03-06T07:03:02.417Z,1.90
2023-03-06T07:08:09.837Z,1.90
2023-03-06T07:13:16.535Z,1.80
2023-03-06T07:18:23.169Z,1.80
2023-03-06T07:23:29.864Z,2.00
2023-03-06T07:28:51.246Z,2.00
2023-03-06T07:33:45.247Z,2.00
2023-03-06T07:38:52.610Z,2.10
2023-03-06T07:43:59.382Z,2.00
2023-03-06T07:49:06.296Z,1.90
2023-03-06T07:54:17.232Z,1.90
2023-03-06T07:59:37.976Z,2.10
2023-03-06T08:04:44.610Z,2.10
2023-03-06T08:09:52.632Z,2.30
2023-03-06T08:14:59.309Z,2.50
2023-03-06T08:20:07.528Z,2.30
2023-03-06T08:25:14.722Z,2.30
2023-03-06T08:30:21.848Z,2.30
2023-03-06T08:35:28.630Z,2.70
2023-03-06T08:40:35.359Z,2.60
2023-03-06T08:45:42.138Z,2.60
2023-03-06T08:50:49.072Z,2.60
2023-03-06T08:55:55.834Z,2.80
2023-03-06T09:01:04.049Z,3.00
2023-03-06T09:06:10.789Z,3.20
2023-03-06T09:11:18.407Z,3.50
2023-03-06T09:16:25.365Z,3.50
2023-03-06T09:21:32.097Z,3.80
2023-03-06T09:26:46.241Z,3.60
2023-03-06T09:31:47.710Z,4.00
2023-03-06T09:36:57.074Z,4.30
2023-03-06T09:42:02.734Z,4.30
2023-03-06T09:47:16.650Z,4.20
2023-03-06T09:52:43.666Z,4.10
2023-03-06T09:58:00.014Z,4.30
2023-03-06T10:03:41.006Z,4.50
2023-03-06T10:09:14.811Z,4.50
2023-03-06T10:14:34.864Z,4.70
2023-03-06T10:19:42.444Z,4.70
2023-03-06T10:25:12.661Z,4.40
2023-03-06T10:30:55.493Z,4.70
2023-03-06T10:36:02.282Z,4.60
2023-03-06T10:41:15.983Z,4.80
2023-03-06T10:46:29.143Z,4.70
2023-03-06T10:51:35.967Z,4.90
2023-03-06T10:56:45.392Z,5.20
2023-03-06T11:01:59.610Z,4.90
2023-03-06T11:07:28.394Z,5.00
2023-03-06T11:12:40.637Z,4.80
2023-03-06T11:18:12.487Z,5.10
2023-03-06T11:23:44.430Z,5.20
2023-03-06T11:28:55.668Z,5.40
2023-03-06T11:34:12.404Z,5.20
2023-03-06T11:39:29.378Z,5.20
2023-03-06T11:45:13.539Z,5.40
2023-03-06T11:50:44.826Z,5.40
2023-03-06T11:56:23.134Z,5.30
2023-03-06T12:01:55.044Z,5.20
2023-03-06T12:07:09.083Z,5.60
2023-03-06T12:12:23.761Z,5.20
2023-03-06T12:18:00.034Z,5.70
2023-03-06T12:23:36.486Z,5.60
2023-03-06T12:29:02.429Z,5.30
2023-03-06T12:34:16.422Z,5.20
2023-03-06T12:39:25.465Z,5.50
2023-03-06T12:44:50.890Z,5.40
2023-03-06T12:50:04.822Z,5.70
2023-03-06T12:55:13.420Z,5.50
2023-03-06T13:00:41.674Z,5.60
2023-03-06T13:06:16.560Z,5.60
2023-03-06T13:12:01.965Z,5.50
2023-03-06T13:17:37.066Z,5.30
2023-03-06T13:22:48.162Z,5.40
2023-03-06T13:28:01.349Z,5.30
2023-03-06T13:33:37.447Z,5.50
2023-03-06T13:38:52.021Z,5.50
2023-03-06T13:44:04.673Z,5.40
2023-03-06T13:49:18.321Z,5.40
2023-03-06T13:55:00.456Z,5.30
2023-03-06T14:00:45.900Z,5.40
2023-03-06T14:05:52.499Z,5.40
2023-03-06T14:11:09.211Z,5.10
2023-03-06T14:16:23.134Z,5.30
2023-03-06T14:21:48.216Z,5.10
2023-03-06T14:26:54.908Z,5.30
2023-03-06T14:32:04.697Z,5.40
2023-03-06T14:37:23.443Z,5.20
2023-03-06T14:49:16.120Z,5.10
2023-03-06T14:54:27.052Z,5.00
2023-03-06T14:59:46.729Z,5.00
2023-03-06T15:05:00.668Z,5.10
2023-03-06T15:10:08.555Z,5.00
2023-03-06T15:15:19.390Z,5.30
2023-03-06T15:20:51.643Z,5.10
2023-03-06T15:26:01.867Z,5.10
2023-03-06T15:31:22.143Z,5.10
2023-03-06T15:36:33.209Z,5.10
2023-03-06T15:41:42.823Z,5.10
2023-03-06T15:46:51.841Z,5.10
2023-03-06T15:51:58.652Z,4.90
2023-03-06T15:57:09.479Z,5.00
2023-03-06T16:02:20.677Z,5.20
2023-03-06T16:07:28.422Z,5.20
2023-03-06T16:12:36.185Z,5.00
2023-03-06T16:17:43.482Z,5.00
2023-03-06T16:22:51.667Z,4.90
2023-03-06T16:28:00.588Z,4.90
2023-03-06T16:33:08.726Z,4.80
2023-03-06T16:38:16.053Z,4.70
2023-03-06T16:43:22.793Z,4.60
2023-03-06T16:48:29.689Z,4.50
2023-03-06T16:53:36.536Z,4.60
2023-03-06T16:58:44.462Z,4.50
2023-03-06T17:03:51.381Z,4.40
2023-03-06T17:09:01.175Z,4.40
2023-03-06T17:14:08.165Z,4.40
2023-03-06T17:19:16.059Z,4.30
2023-03-06T17:24:23.045Z,4.20
2023-03-06T17:29:29.859Z,4.10
2023-03-06T17:34:36.800Z,3.90
2023-03-06T17:39:43.532Z,3.70
2023-03-06T17:44:51.417Z,3.70
2023-03-06T17:49:58.471Z,3.50
2023-03-06T17:55:05.460Z,3.50
2023-03-06T18:00:13.533Z,3.40
2023-03-06T18:05:21.946Z,3.40
2023-03-06T18:10:28.732Z,3.40
2023-03-06T18:15:35.706Z,3.70
2023-03-06T18:20:47.213Z,3.50
2023-03-06T18:25:54.397Z,3.50
2023-03-06T18:31:02.776Z,3.20
2023-03-06T18:36:09.870Z,3.40
2023-03-06T18:41:19.012Z,3.50
2023-03-06T18:46:27.578Z,3.40
2023-03-06T18:51:34.830Z,3.30
2023-03-06T18:56:43.266Z,3.40
2023-03-06T19:01:52.204Z,3.30
2023-03-06T19:06:59.067Z,3.30
2023-03-06T19:12:06.450Z,3.30
2023-03-06T19:17:13.234Z,3.20
2023-03-06T19:22:20.017Z,3.40
2023-03-06T19:27:26.619Z,3.50
2023-03-06T19:32:34.592Z,3.60
2023-03-06T19:37:41.937Z,3.60
2023-03-06T19:42:51.404Z,3.60
2023-03-06T19:47:59.769Z,3.60
2023-03-06T19:53:07.884Z,3.50
2023-03-06T19:58:14.629Z,3.50
2023-03-06T20:03:22.414Z,3.10
2023-03-06T20:08:32.985Z,3.30
2023-03-06T20:13:46.889Z,3.30
2023-03-06T20:18:47.928Z,3.40
2023-03-06T20:23:57.212Z,3.20
2023-03-06T20:29:03.979Z,3.20
2023-03-06T20:34:12.525Z,3.30
2023-03-06T20:39:22.504Z,3.20
2023-03-06T20:44:29.741Z,3.10
2023-03-06T20:49:37.002Z,2.90
2023-03-06T20:54:45.581Z,3.00
2023-03-06T20:59:52.387Z,3.00
2023-03-06T21:05:01.256Z,3.10
2023-03-06T21:10:11.466Z,3.10
2023-03-06T21:15:19.787Z,3.00
2023-03-06T21:20:26.843Z,3.00
2023-03-06T21:25:33.925Z,3.00
2023-03-06T21:30:40.801Z,3.00
2023-03-06T21:35:48.515Z,3.00
2023-03-06T21:40:56.356Z,3.20
2023-03-06T21:46:03.631Z,3.00
2023-03-06T21:51:16.163Z,3.10
2023-03-06T21:56:26.613Z,3.10
2023-03-06T22:01:33.385Z,3.20
2023-03-06T22:06:41.638Z,3.10
2023-03-06T22:11:48.860Z,3.10
2023-03-06T22:16:57.344Z,3.20
2023-03-06T22:22:04.412Z,3.10
2023-03-06T22:27:11.138Z,3.30
2023-03-06T22:32:18.276Z,3.10
2023-03-06T22:37:25.105Z,3.10
2023-03-06T22:42:31.770Z,3.20
2023-03-06T22:47:40.181Z,3.20
2023-03-06T22:52:47.022Z,3.20
2023-03-06T22:57:54.585Z,3.20
2023-03-06T23:03:01.575Z,3.20
2023-03-06T23:08:08.485Z,3.00
2023-03-06T23:13:15.671Z,3.00
2023-03-06T23:18:23.160Z,3.00
2023-03-06T23:23:30.328Z,3.00
2023-03-06T23:28:37.180Z,3.00
2023-03-06T23:33:44.856Z,3.10
2023-03-06T23:38:51.886Z,2.90
2023-03-06T23:43:59.022Z,2.90
2023-03-06T23:49:07.954Z,2.90
2023-03-06T23:54:14.768Z,3.00
2023-03-06T23:59:21.746Z,2.90
